createdAt,value
2023-04-01T00:10:45.723Z,25.06
2023-04-01T00:30:45.700Z,25.07
2023-04-01T00:50:45.185Z,25.09
2023-04-01T01:10:44.917Z,25.11
2023-04-01T01:30:45.735Z,25.14
2023-04-01T01:50:45.147Z,25.19
2023-04-01T02:30:44.912Z,25.36
2023-04-01T03:30:45.563Z,26.11
2023-04-01T03:50:44.881Z,26.35
2023-04-01T04:10:45.629Z,26.68
2023-04-01T04:50:45.637Z,27.38
2023-04-01T07:30:45.562Z,27.33
2023-04-01T07:50:46.004Z,27.34
2023-04-01T09:10:45.515Z,27.6
2023-04-01T10:10:45.558Z,27.86
2023-04-01T10:30:45.506Z,27.88
2023-04-01T11:10:45.484Z,27.87
2023-04-01T11:30:45.462Z,28
2023-04-01T11:50:45.333Z,28.16
2023-04-01T12:10:44.708Z,28.3
2023-04-01T12:30:45.465Z,28.41
2023-04-01T12:50:44.665Z,28.45
2023-04-01T13:10:45.431Z,28.43
2023-04-01T13:30:45.426Z,28.37
2023-04-01T13:50:45.450Z,28.26
2023-04-01T14:10:45.414Z,28.1
2023-04-01T14:30:45.399Z,27.94
2023-04-01T14:50:44.892Z,27.79
2023-04-01T15:30:45.377Z,27.5
2023-04-01T16:10:44.903Z,27.18
2023-04-01T16:30:45.467Z,27.02
2023-04-01T16:50:45.371Z,26.93
2023-04-01T17:10:45.209Z,26.98
2023-04-01T17:30:45.351Z,27.14
2023-04-01T17:50:45.321Z,27.23
2023-04-01T18:10:44.555Z,27.25
2023-04-01T18:30:44.791Z,27.31
2023-04-01T18:50:45.302Z,27.87
2023-04-01T19:10:45.321Z,28.22
2023-04-01T19:30:44.515Z,28.37
2023-04-01T20:10:45.257Z,28.28
2023-04-01T20:30:45.297Z,28.11
2023-04-01T20:50:45.131Z,27.9
2023-04-01T21:10:45.262Z,27.68
2023-04-01T21:30:45.118Z,27.44
2023-04-01T21:50:44.717Z,27.21
2023-04-01T22:10:44.479Z,27
2023-04-01T22:30:45.216Z,26.81
2023-04-01T22:50:45.208Z,26.61
2023-04-01T23:10:45.224Z,26.44
2023-04-01T23:30:45.213Z,26.28
2023-04-01T23:50:45.215Z,26.13
